Time;durP1;ratioP1;P1;durP2;ratioP2;P2;SDS_P1;SDS_P2;PMS_P1;PMS_P2;Temp;Humidity;BMP_temperature;BMP_pressure;BME280_temperature;BME280_humidity;BME280_pressure;Samples;Min_cycle;Max_cycle;Signal;HPM_P1;HPM_P2
2021/10/29 00:00:08;;;;;;;24.17;14.13;;;14.40;91.80;;;;;;5033183;28;20082;-66
2021/10/29 00:02:33;;;;;;;21.58;13.77;;;14.40;91.70;;;;;;5033497;28;20021;-67
2021/10/29 00:04:59;;;;;;;20.85;12.88;;;14.40;91.70;;;;;;5033182;28;20424;-67
2021/10/29 00:07:26;;;;;;;22.83;12.57;;;14.40;91.60;;;;;;5033344;28;20605;-69
2021/10/29 00:09:52;;;;;;;23.13;12.65;;;14.30;91.60;;;;;;5033299;28;20032;-67
2021/10/29 00:12:18;;;;;;;20.58;13.32;;;14.40;91.60;;;;;;5033111;28;20037;-66
2021/10/29 00:14:45;;;;;;;18.23;12.60;;;14.30;91.50;;;;;;5033479;28;20053;-67
2021/10/29 00:17:11;;;;;;;19.80;13.00;;;14.30;91.50;;;;;;5033076;28;20116;-66
2021/10/29 00:19:38;;;;;;;20.77;13.20;;;14.30;91.50;;;;;;5033285;28;20021;-66
2021/10/29 00:22:04;;;;;;;20.75;13.55;;;14.30;91.40;;;;;;5033045;28;20049;-67
2021/10/29 00:24:31;;;;;;;20.70;13.80;;;14.30;91.50;;;;;;5033187;28;20101;-66
2021/10/29 00:26:56;;;;;;;20.52;13.32;;;14.20;91.50;;;;;;5033172;28;20087;-67
2021/10/29 00:29:22;;;;;;;19.52;12.90;;;14.20;91.40;;;;;;5033161;28;20022;-66
2021/10/29 00:31:49;;;;;;;20.83;13.32;;;14.20;91.40;;;;;;5033165;28;20088;-67
2021/10/29 00:34:15;;;;;;;19.98;12.70;;;14.10;91.30;;;;;;5033061;28;20092;-66
2021/10/29 00:36:41;;;;;;;17.63;13.23;;;14.10;91.40;;;;;;5033185;28;20026;-67
2021/10/29 00:39:07;;;;;;;23.48;13.40;;;14.00;91.40;;;;;;5032914;28;20026;-67
2021/10/29 00:41:36;;;;;;;18.25;12.65;;;14.00;91.40;;;;;;5032726;28;20104;-67
2021/10/29 00:44:03;;;;;;;22.85;13.43;;;14.00;91.10;;;;;;5032764;28;20057;-67
2021/10/29 00:46:29;;;;;;;21.33;12.77;;;14.00;91.20;;;;;;5032925;28;20101;-67
2021/10/29 00:48:55;;;;;;;18.02;12.85;;;13.90;91.10;;;;;;5032945;28;20147;-67
2021/10/29 00:51:22;;;;;;;19.73;12.10;;;13.90;91.00;;;;;;5032597;28;20471;-67
2021/10/29 00:53:48;;;;;;;18.50;11.68;;;13.90;90.90;;;;;;5032746;28;20028;-67
2021/10/29 00:56:17;;;;;;;25.05;11.82;;;13.90;90.90;;;;;;5032665;28;20025;-67
2021/10/29 00:58:43;;;;;;;15.88;12.00;;;13.80;90.80;;;;;;5034995;28;20026;-68
2021/10/29 01:01:08;;;;;;;24.45;12.35;;;13.80;90.70;;;;;;5036556;28;20025;-67
2021/10/29 01:03:39;;;;;;;20.30;12.38;;;13.80;90.70;;;;;;5036532;28;20053;-67
2021/10/29 01:06:08;;;;;;;19.88;12.48;;;13.80;90.60;;;;;;5036449;28;20080;-67
2021/10/29 01:08:35;;;;;;;22.15;12.27;;;13.70;90.60;;;;;;5036321;28;20156;-67
2021/10/29 01:11:01;;;;;;;22.20;12.05;;;13.70;90.50;;;;;;5036526;28;20088;-67
2021/10/29 01:13:27;;;;;;;17.35;11.82;;;13.70;90.50;;;;;;5036404;28;20036;-67
2021/10/29 01:15:54;;;;;;;25.38;12.57;;;13.60;90.30;;;;;;5036461;28;20461;-67
2021/10/29 01:18:20;;;;;;;17.58;12.30;;;13.60;90.40;;;;;;5036276;28;20056;-66
2021/10/29 01:20:46;;;;;;;21.80;11.90;;;13.60;90.30;;;;;;5036870;28;20053;-68
2021/10/29 01:23:12;;;;;;;16.30;12.07;;;13.60;90.30;;;;;;5036070;28;20092;-67
2021/10/29 01:25:37;;;;;;;21.63;12.43;;;13.60;90.20;;;;;;5036105;28;20029;-67
2021/10/29 01:28:03;;;;;;;15.35;11.35;;;13.60;90.30;;;;;;5036288;28;20491;-67
2021/10/29 01:30:29;;;;;;;18.70;12.70;;;13.60;90.10;;;;;;5035999;28;20109;-67
2021/10/29 01:32:55;;;;;;;19.08;11.52;;;13.60;90.20;;;;;;5036062;28;20060;-66
2021/10/29 01:35:20;;;;;;;19.70;12.05;;;13.60;90.20;;;;;;5036132;28;20025;-68
2021/10/29 01:37:46;;;;;;;21.05;12.50;;;13.60;90.10;;;;;;5036441;28;20080;-67
2021/10/29 01:40:16;;;;;;;17.23;12.38;;;13.60;90.20;;;;;;5035771;28;20479;-67
2021/10/29 01:42:42;;;;;;;20.25;12.18;;;13.60;90.10;;;;;;5035985;28;20049;-68
2021/10/29 01:45:09;;;;;;;19.73;12.63;;;13.60;90.00;;;;;;5035529;28;20056;-67
2021/10/29 01:47:35;;;;;;;19.08;12.40;;;13.60;90.00;;;;;;5034443;28;20425;-66
2021/10/29 01:50:02;;;;;;;22.52;12.65;;;13.60;90.00;;;;;;5035810;28;20068;-66
2021/10/29 01:52:30;;;;;;;20.05;12.05;;;13.60;90.10;;;;;;5035896;28;20094;-66
2021/10/29 01:54:56;;;;;;;22.15;12.38;;;13.60;89.80;;;;;;5034296;28;20028;-67
2021/10/29 01:57:22;;;;;;;19.73;11.65;;;13.70;90.00;;;;;;5035607;28;20037;-67
2021/10/29 01:59:48;;;;;;;18.88;12.40;;;13.70;89.90;;;;;;5035528;28;20479;-67
2021/10/29 02:02:14;;;;;;;18.38;11.57;;;13.70;89.70;;;;;;5035792;28;20029;-67
2021/10/29 02:04:40;;;;;;;18.05;11.70;;;13.70;89.60;;;;;;5035646;28;20033;-67
2021/10/29 02:07:06;;;;;;;19.92;12.63;;;13.60;89.80;;;;;;5035441;28;20106;-69
2021/10/29 02:09:32;;;;;;;17.75;12.15;;;13.60;89.80;;;;;;5035349;28;20080;-67
2021/10/29 02:11:58;;;;;;;20.58;11.77;;;13.60;89.90;;;;;;5035186;28;20386;-66
2021/10/29 02:14:23;;;;;;;22.38;11.93;;;13.60;89.70;;;;;;5035481;28;20532;-67
2021/10/29 02:16:49;;;;;;;21.42;11.80;;;13.50;89.50;;;;;;5035422;28;20049;-68
2021/10/29 02:19:15;;;;;;;23.38;13.40;;;13.50;89.60;;;;;;5035180;28;20025;-67
2021/10/29 02:21:41;;;;;;;16.95;11.68;;;13.50;89.60;;;;;;5035117;28;20021;-67
2021/10/29 02:24:07;;;;;;;18.75;12.77;;;13.50;89.40;;;;;;5035242;28;20125;-67
2021/10/29 02:26:34;;;;;;;17.63;12.15;;;13.50;89.40;;;;;;5035069;28;20431;-67
2021/10/29 02:29:00;;;;;;;17.23;11.07;;;13.50;89.10;;;;;;5035226;28;20014;-67
2021/10/29 02:31:26;;;;;;;18.65;12.25;;;13.40;89.00;;;;;;5034899;28;20029;-67
2021/10/29 02:33:53;;;;;;;18.48;11.15;;;13.40;89.10;;;;;;5034954;28;20025;-68
2021/10/29 02:36:19;;;;;;;20.75;12.68;;;13.40;89.00;;;;;;5034805;28;20541;-67
2021/10/29 02:38:45;;;;;;;19.75;11.90;;;13.40;88.80;;;;;;5034878;28;20053;-66
2021/10/29 02:41:12;;;;;;;24.25;12.70;;;13.40;88.70;;;;;;5034825;28;20068;-68
2021/10/29 02:43:37;;;;;;;19.10;12.10;;;13.40;88.50;;;;;;5033377;28;20030;-66
2021/10/29 02:46:03;;;;;;;17.33;11.65;;;13.30;88.20;;;;;;5034718;28;20049;-66
2021/10/29 02:48:29;;;;;;;18.80;11.95;;;13.30;88.00;;;;;;5034654;28;20100;-68
2021/10/29 02:50:55;;;;;;;19.52;11.75;;;13.30;88.00;;;;;;5033289;28;20112;-67
2021/10/29 02:53:21;;;;;;;17.08;11.32;;;13.30;87.90;;;;;;5034941;28;20463;-67
2021/10/29 02:55:46;;;;;;;16.08;11.07;;;13.20;87.80;;;;;;5034539;28;20024;-67
2021/10/29 02:58:12;;;;;;;19.40;11.70;;;13.20;87.90;;;;;;5034735;28;20036;-67
2021/10/29 03:00:38;;;;;;;17.48;10.75;;;13.20;87.80;;;;;;5034177;28;20020;-67
2021/10/29 03:03:03;;;;;;;18.17;11.13;;;13.20;87.70;;;;;;5034267;28;20099;-67
2021/10/29 03:05:29;;;;;;;19.13;11.00;;;13.20;87.40;;;;;;5034278;28;20030;-67
2021/10/29 03:07:55;;;;;;;17.23;10.65;;;13.20;87.00;;;;;;5034309;28;20030;-67
2021/10/29 03:10:21;;;;;;;17.25;10.73;;;13.20;87.10;;;;;;5034029;28;20383;-67
2021/10/29 03:12:47;;;;;;;19.05;11.75;;;13.20;87.30;;;;;;5034223;28;20049;-68
2021/10/29 03:15:13;;;;;;;19.33;11.20;;;13.10;87.20;;;;;;5033942;28;20022;-67
2021/10/29 03:17:39;;;;;;;15.60;10.60;;;13.10;87.00;;;;;;5034123;28;20029;-67
2021/10/29 03:20:07;;;;;;;16.92;11.50;;;13.10;87.00;;;;;;5033740;28;20052;-67
2021/10/29 03:22:32;;;;;;;16.20;10.77;;;13.00;87.10;;;;;;5033439;28;20045;-66
2021/10/29 03:24:58;;;;;;;19.15;11.00;;;13.00;87.30;;;;;;5033986;28;20028;-66
2021/10/29 03:27:24;;;;;;;16.42;11.48;;;13.00;87.30;;;;;;5034057;28;20026;-66
2021/10/29 03:29:50;;;;;;;18.17;10.73;;;13.00;87.30;;;;;;5033794;28;20027;-67
2021/10/29 03:32:18;;;;;;;17.05;10.75;;;13.00;87.50;;;;;;5033900;28;20029;-67
2021/10/29 03:34:44;;;;;;;15.50;10.57;;;13.00;87.50;;;;;;5033821;28;20018;-67
2021/10/29 03:42:49;;;;;;;20.83;11.20;;;12.90;87.20;;;;;;5042341;28;20037;-67
2021/10/29 03:45:16;;;;;;;20.17;11.40;;;12.90;87.40;;;;;;5033536;28;20156;-67
2021/10/29 03:47:49;;;;;;;16.58;10.88;;;13.00;87.40;;;;;;5033364;28;20041;-66
2021/10/29 03:50:35;;;;;;;16.00;11.23;;;12.90;87.10;;;;;;5032323;28;20387;-68
2021/10/29 03:53:46;;;;;;;18.15;11.02;;;12.90;87.00;;;;;;5033521;28;20022;-65
2021/10/29 03:55:53;;;;;;;19.20;10.80;;;12.90;87.20;;;;;;5035757;28;20025;-67
2021/10/29 03:58:18;;;;;;;19.80;10.75;;;12.90;87.30;;;;;;5033226;28;20025;-66
2021/10/29 04:00:44;;;;;;;16.83;11.40;;;12.90;87.20;;;;;;5033200;28;20090;-68
2021/10/29 04:03:10;;;;;;;17.52;11.10;;;12.90;87.20;;;;;;5033016;28;20121;-67
2021/10/29 04:05:36;;;;;;;16.73;11.15;;;12.90;87.20;;;;;;5033066;28;20351;-67
2021/10/29 04:08:02;;;;;;;16.45;10.63;;;12.90;87.20;;;;;;5032884;28;20390;-66
2021/10/29 04:10:29;;;;;;;18.60;10.93;;;12.90;87.10;;;;;;5033014;28;20553;-66
2021/10/29 04:13:01;;;;;;;19.13;11.18;;;12.80;87.60;;;;;;5033249;28;20025;-67
2021/10/29 04:15:27;;;;;;;18.05;11.55;;;12.80;86.90;;;;;;5033097;28;20026;-67
2021/10/29 04:17:53;;;;;;;19.67;11.85;;;12.70;87.10;;;;;;5033480;28;20124;-65
2021/10/29 04:20:19;;;;;;;15.60;10.32;;;12.70;87.20;;;;;;5033114;28;20049;-66
2021/10/29 04:22:45;;;;;;;17.02;11.40;;;12.70;87.30;;;;;;5032841;28;20053;-67
2021/10/29 04:25:11;;;;;;;17.23;11.27;;;12.70;87.10;;;;;;5032893;28;20359;-66
2021/10/29 04:27:44;;;;;;;15.65;9.90;;;12.70;87.20;;;;;;5033042;28;20082;-67
2021/10/29 04:30:14;;;;;;;16.20;10.55;;;12.60;87.10;;;;;;5032922;28;20026;-67
2021/10/29 04:32:40;;;;;;;17.02;10.70;;;12.60;87.10;;;;;;5033298;28;20042;-67
2021/10/29 04:35:06;;;;;;;17.75;11.23;;;12.60;87.60;;;;;;5037389;28;20029;-66
2021/10/29 04:37:32;;;;;;;13.25;10.00;;;12.60;87.00;;;;;;5037048;28;20026;-66
2021/10/29 04:39:58;;;;;;;16.80;10.07;;;12.60;87.20;;;;;;5036830;28;20022;-66
2021/10/29 04:42:24;;;;;;;14.48;10.65;;;12.60;87.00;;;;;;5036745;28;20026;-67
2021/10/29 04:44:50;;;;;;;17.42;10.68;;;12.60;87.10;;;;;;5037166;28;20022;-67
2021/10/29 04:47:16;;;;;;;19.63;10.10;;;12.60;87.20;;;;;;5036608;28;20116;-66
2021/10/29 04:49:41;;;;;;;14.95;9.45;;;12.60;87.20;;;;;;5036610;28;20101;-67
2021/10/29 04:52:07;;;;;;;14.95;9.70;;;12.60;87.20;;;;;;5036481;28;20421;-67
2021/10/29 04:54:33;;;;;;;17.02;10.15;;;12.60;87.20;;;;;;5036803;28;20048;-66
2021/10/29 04:56:59;;;;;;;15.23;10.32;;;12.60;87.10;;;;;;5036293;28;20501;-67
2021/10/29 04:59:25;;;;;;;19.13;10.52;;;12.70;87.30;;;;;;5036420;28;20022;-66
2021/10/29 05:01:51;;;;;;;17.30;10.82;;;12.70;87.20;;;;;;5034875;28;20036;-67
2021/10/29 05:04:18;;;;;;;16.60;10.20;;;12.70;86.90;;;;;;5036258;28;20021;-67
2021/10/29 05:06:44;;;;;;;18.02;10.57;;;12.70;86.90;;;;;;5036014;28;20343;-67
2021/10/29 05:09:10;;;;;;;19.25;10.40;;;12.70;86.90;;;;;;5036102;28;20023;-67
2021/10/29 05:11:36;;;;;;;17.25;10.50;;;12.60;87.00;;;;;;5036043;28;20433;-66
2021/10/29 05:14:01;;;;;;;19.70;10.80;;;12.60;86.90;;;;;;5036212;28;20083;-66
2021/10/29 05:16:27;;;;;;;16.63;10.07;;;12.60;86.90;;;;;;5036208;28;20116;-67
2021/10/29 05:18:53;;;;;;;16.80;10.70;;;12.60;86.80;;;;;;5036153;28;20029;-67
2021/10/29 05:21:19;;;;;;;15.65;10.57;;;12.60;86.90;;;;;;5035731;28;20037;-67
2021/10/29 05:23:44;;;;;;;17.55;10.25;;;12.60;87.10;;;;;;5034552;28;20426;-67
2021/10/29 05:26:10;;;;;;;17.30;10.82;;;12.50;87.00;;;;;;5035731;28;20482;-68
2021/10/29 05:28:36;;;;;;;16.67;10.45;;;12.60;87.00;;;;;;5035880;28;20037;-68
2021/10/29 05:31:01;;;;;;;18.10;10.95;;;12.50;86.90;;;;;;5034159;28;20485;-67
2021/10/29 05:33:27;;;;;;;17.88;10.75;;;12.50;87.00;;;;;;5034219;28;20084;-67
2021/10/29 05:35:53;;;;;;;15.52;10.38;;;12.60;87.10;;;;;;5035490;28;20025;-68
2021/10/29 05:38:19;;;;;;;26.00;12.07;;;12.60;87.00;;;;;;5035622;28;20029;-67
2021/10/29 05:40:44;;;;;;;14.95;10.77;;;12.60;87.00;;;;;;5035559;28;20434;-69
2021/10/29 05:43:10;;;;;;;13.43;10.30;;;12.60;86.80;;;;;;5035493;28;20037;-68
2021/10/29 05:45:36;;;;;;;17.00;10.90;;;12.60;86.70;;;;;;5035051;28;20419;-67
2021/10/29 05:48:05;;;;;;;13.75;10.43;;;12.60;87.30;;;;;;5035567;28;20090;-68
2021/10/29 05:50:31;;;;;;;19.10;10.20;;;12.60;86.70;;;;;;5035066;28;20029;-68
2021/10/29 05:52:58;;;;;;;15.73;10.63;;;12.60;86.90;;;;;;5033866;28;20029;-68
2021/10/29 05:55:24;;;;;;;15.00;9.50;;;12.60;86.70;;;;;;5039085;28;20013;-67
2021/10/29 05:57:51;;;;;;;19.00;11.50;;;12.60;86.70;;;;;;5054806;28;20044;-67
2021/10/29 06:00:27;;;;;;;15.85;10.40;;;12.60;87.30;;;;;;5053766;28;20029;-68
2021/10/29 06:02:54;;;;;;;15.43;10.35;;;12.60;86.30;;;;;;5055033;28;20029;-66
2021/10/29 06:05:20;;;;;;;17.20;11.00;;;12.50;86.50;;;;;;5054872;28;20365;-73
2021/10/29 06:07:46;;;;;;;23.40;11.13;;;12.60;86.50;;;;;;5055177;28;20036;-68
2021/10/29 06:10:14;;;;;;;18.00;11.23;;;12.60;86.60;;;;;;5054777;28;20025;-72
2021/10/29 06:12:44;;;;;;;18.02;10.77;;;12.60;86.70;;;;;;5055162;28;20025;-67
2021/10/29 06:15:12;;;;;;;15.98;10.07;;;12.70;86.40;;;;;;5054616;28;20038;-67
2021/10/29 06:17:38;;;;;;;15.75;10.35;;;12.70;86.30;;;;;;5054673;28;20025;-68
2021/10/29 06:20:05;;;;;;;16.33;10.57;;;12.80;86.10;;;;;;5054518;28;20100;-66
2021/10/29 06:22:40;;;;;;;15.70;10.15;;;12.80;85.80;;;;;;5054062;28;20048;-68
2021/10/29 06:25:14;;;;;;;14.50;9.45;;;13.00;85.40;;;;;;5043056;28;20056;-69
2021/10/29 06:30:24;;;;;;;16.85;10.18;;;13.10;85.40;;;;;;5044007;28;20076;-67
2021/10/29 06:32:50;;;;;;;17.23;10.77;;;13.10;85.10;;;;;;5051172;28;20428;-67
2021/10/29 06:35:16;;;;;;;15.88;10.82;;;13.10;84.70;;;;;;5054009;28;20043;-67
2021/10/29 06:37:42;;;;;;;22.75;10.63;;;13.10;84.70;;;;;;5054545;28;20116;-68
2021/10/29 06:40:11;;;;;;;18.23;11.63;;;13.10;84.20;;;;;;5054278;28;20488;-68
2021/10/29 06:42:37;;;;;;;16.40;9.82;;;13.10;84.00;;;;;;5044579;28;20058;-68
2021/10/29 07:01:37;;;;;;;24.98;10.15;;;13.30;84.10;;;;;;5033453;28;19955;-68
2021/10/29 07:42:28;;;;;;;15.95;10.68;;;14.00;79.90;;;;;;5053068;28;20025;-69
2021/10/29 07:44:54;;;;;;;21.35;10.88;;;14.20;79.90;;;;;;5052898;28;20462;-73
2021/10/29 07:47:20;;;;;;;18.05;10.57;;;14.20;79.30;;;;;;5053076;28;20386;-71
2021/10/29 07:49:46;;;;;;;16.70;9.65;;;14.10;79.40;;;;;;5053039;28;20017;-69
2021/10/29 07:52:14;;;;;;;19.98;10.68;;;14.10;79.30;;;;;;5051212;28;20032;-70
2021/10/29 07:54:45;;;;;;;22.65;11.02;;;14.10;79.60;;;;;;5052913;28;20101;-68
2021/10/29 07:57:18;;;;;;;24.40;10.40;;;14.20;79.30;;;;;;5052861;28;20400;-69
2021/10/29 07:59:44;;;;;;;21.02;11.13;;;14.30;79.30;;;;;;5052354;28;20035;-68
2021/10/29 08:02:10;;;;;;;22.27;11.18;;;14.30;79.10;;;;;;5052572;28;20025;-70
2021/10/29 08:04:36;;;;;;;18.25;11.68;;;14.40;79.30;;;;;;5052658;28;20467;-70
2021/10/29 08:07:02;;;;;;;15.32;11.60;;;14.40;79.30;;;;;;5051377;28;20128;-70
2021/10/29 08:09:30;;;;;;;22.17;11.80;;;14.40;79.20;;;;;;5052743;28;20028;-70
2021/10/29 08:11:56;;;;;;;18.08;11.93;;;14.50;79.20;;;;;;5052885;28;20571;-69
2021/10/29 08:14:23;;;;;;;19.92;11.48;;;14.50;78.80;;;;;;5052974;28;20516;-69
2021/10/29 08:16:49;;;;;;;19.30;11.63;;;14.60;78.90;;;;;;5053015;28;20040;-69
2021/10/29 08:19:20;;;;;;;16.90;11.15;;;14.60;78.50;;;;;;5050966;28;20041;-69
2021/10/29 08:21:46;;;;;;;18.33;11.95;;;14.60;78.70;;;;;;5052747;28;20035;-69
2021/10/29 08:24:13;;;;;;;16.20;11.70;;;14.70;78.40;;;;;;5052657;28;20496;-73
2021/10/29 08:26:39;;;;;;;20.60;12.23;;;14.70;78.40;;;;;;5052654;28;20044;-69
2021/10/29 08:29:04;;;;;;;19.95;11.45;;;14.80;78.40;;;;;;5052970;28;20028;-69
2021/10/29 08:31:31;;;;;;;20.85;11.15;;;14.80;78.20;;;;;;5052922;28;20099;-70
2021/10/29 08:34:25;;;;;;;19.20;11.02;;;14.90;78.00;;;;;;5053152;28;20033;-82
2021/10/29 08:36:57;;;;;;;19.70;10.23;;;14.90;77.60;;;;;;5055472;28;20038;-87
2021/10/29 08:39:28;;;;;;;19.08;10.60;;;15.00;77.00;;;;;;5052117;28;20424;-69
2021/10/29 08:42:00;;;;;;;16.45;9.48;;;15.10;77.00;;;;;;5053158;28;20378;-80
2021/10/29 08:44:31;;;;;;;18.35;9.32;;;15.10;76.80;;;;;;5052811;28;20031;-69
2021/10/29 08:47:01;;;;;;;16.23;9.82;;;15.20;76.00;;;;;;5052175;28;20482;-69
2021/10/29 08:49:29;;;;;;;16.20;9.70;;;15.30;75.80;;;;;;5036836;28;20086;-88
2021/10/29 08:51:57;;;;;;;14.70;9.23;;;15.40;75.00;;;;;;5066419;28;20044;-79
2021/10/29 08:54:23;;;;;;;17.08;9.50;;;15.50;74.30;;;;;;5071993;28;20025;-87
2021/10/29 08:56:50;;;;;;;18.50;9.30;;;15.70;74.20;;;;;;5062608;28;20433;-86
2021/10/29 08:59:29;;;;;;;18.23;10.00;;;15.90;73.80;;;;;;5053333;28;20033;-88
2021/10/29 09:02:41;;;;;;;15.65;9.82;;;16.00;73.10;;;;;;5053537;28;20021;-77
2021/10/29 09:04:56;;;;;;;16.38;9.45;;;16.10;72.50;;;;;;5055541;28;20048;-80
2021/10/29 09:33:06;;;;;;;18.70;7.90;;;16.60;68.90;;;;;;5056280;28;20047;-70
2021/10/29 09:35:41;;;;;;;13.63;6.97;;;16.60;68.00;;;;;;5055834;28;20466;-71
2021/10/29 09:38:09;;;;;;;16.73;8.35;;;16.60;67.60;;;;;;5056185;28;20060;-73
2021/10/29 09:40:39;;;;;;;13.25;8.65;;;16.70;68.00;;;;;;5055746;28;20029;-68
2021/10/29 09:43:14;;;;;;;14.43;8.27;;;16.70;67.90;;;;;;5055648;28;20029;-71
2021/10/29 09:45:49;;;;;;;17.88;9.80;;;16.80;67.70;;;;;;5055729;28;20157;-68
2021/10/29 09:48:20;;;;;;;17.25;8.75;;;16.90;67.70;;;;;;5055448;28;20032;-69
2021/10/29 09:50:54;;;;;;;13.43;7.93;;;17.00;67.30;;;;;;5055294;28;20032;-70
2021/10/29 09:56:42;;;;;;;13.95;8.13;;;17.20;66.50;;;;;;5062580;28;20033;-69
2021/10/29 09:59:07;;;;;;;13.23;8.00;;;17.20;66.40;;;;;;5055314;28;20409;-70
2021/10/29 10:01:35;;;;;;;15.35;9.02;;;17.30;66.20;;;;;;5055178;28;20032;-69
2021/10/29 10:04:02;;;;;;;13.77;8.55;;;17.50;66.40;;;;;;5055388;28;20025;-72
2021/10/29 10:06:31;;;;;;;12.00;8.27;;;17.60;65.90;;;;;;5055087;28;20045;-70
2021/10/29 10:08:59;;;;;;;19.50;8.50;;;17.70;65.30;;;;;;5055229;28;20024;-72
2021/10/29 10:11:27;;;;;;;14.50;7.88;;;17.90;65.20;;;;;;5054782;28;20045;-68
2021/10/29 10:13:55;;;;;;;12.20;6.90;;;17.90;64.50;;;;;;5055069;28;20021;-71
2021/10/29 10:16:23;;;;;;;16.02;8.05;;;17.90;64.00;;;;;;5055031;28;20036;-70
2021/10/29 10:18:50;;;;;;;13.18;7.35;;;17.90;64.00;;;;;;5054265;28;20455;-70
2021/10/29 10:21:21;;;;;;;13.90;7.88;;;18.00;63.80;;;;;;5054242;28;20086;-70
2021/10/29 10:23:51;;;;;;;13.38;7.85;;;18.10;63.80;;;;;;5054163;28;20052;-71
2021/10/29 10:26:28;;;;;;;11.85;7.07;;;18.10;63.10;;;;;;5054409;28;20037;-70
2021/10/29 10:46:12;;;;;;;11.05;6.43;;;18.60;61.00;;;;;;5054160;28;20131;-69
2021/10/29 10:48:50;;;;;;;17.45;7.63;;;18.70;60.70;;;;;;5053582;28;20486;-70
2021/10/29 10:51:53;;;;;;;12.25;7.10;;;18.80;60.40;;;;;;5053374;28;20021;-70
2021/10/29 10:54:41;;;;;;;14.88;7.07;;;18.90;60.00;;;;;;5053773;28;20035;-69
2021/10/29 11:03:26;;;;;;;16.75;8.07;;;19.10;58.70;;;;;;5053486;28;19952;-69
2021/10/29 11:10:22;;;;;;;15.13;9.10;;;19.40;59.00;;;;;;5053057;28;20108;-69
2021/10/29 11:12:47;;;;;;;15.07;9.32;;;19.50;59.60;;;;;;5053418;28;20036;-74
2021/10/29 11:15:28;;;;;;;17.20;9.88;;;19.50;59.10;;;;;;5053945;28;20029;-71
2021/10/29 11:18:13;;;;;;;16.45;9.65;;;19.70;59.20;;;;;;5054174;28;20103;-88
2021/10/29 11:23:32;;;;;;;35.03;10.25;;;19.80;57.70;;;;;;5054794;28;20049;-71
2021/10/29 11:26:37;;;;;;;21.20;9.55;;;19.90;58.10;;;;;;5054280;28;20073;-72
2021/10/29 11:29:04;;;;;;;14.88;7.97;;;20.00;58.20;;;;;;5054802;28;20036;-69
2021/10/29 11:31:48;;;;;;;17.42;9.02;;;20.00;58.10;;;;;;5052917;28;20410;-69
2021/10/29 11:34:17;;;;;;;20.25;8.52;;;20.00;58.40;;;;;;5054384;28;20021;-69
2021/10/29 11:36:51;;;;;;;17.02;7.40;;;20.10;58.80;;;;;;5053170;28;20483;-70
2021/10/29 11:39:19;;;;;;;13.55;7.13;;;20.10;58.80;;;;;;5052634;28;20048;-69
2021/10/29 11:41:50;;;;;;;15.60;6.57;;;20.20;58.50;;;;;;5052055;28;20037;-69
2021/10/29 11:44:22;;;;;;;12.13;6.30;;;20.20;58.10;;;;;;5053048;28;20029;-70
2021/10/29 11:46:49;;;;;;;15.35;6.40;;;20.20;58.40;;;;;;5053680;28;20478;-71
2021/10/29 11:49:28;;;;;;;11.07;5.80;;;20.10;57.90;;;;;;5051974;28;20392;-68
2021/10/29 11:51:59;;;;;;;8.85;5.80;;;20.10;56.80;;;;;;5053763;28;20066;-70
2021/10/29 11:54:32;;;;;;;35.17;8.00;;;20.10;58.10;;;;;;5051543;28;20378;-69
2021/10/29 12:00:25;;;;;;;14.25;6.72;;;20.10;58.20;;;;;;5053628;28;20025;-69
2021/10/29 12:05:58;;;;;;;14.90;7.25;;;20.10;56.90;;;;;;5053397;28;20097;-70
2021/10/29 12:08:30;;;;;;;18.17;6.75;;;20.10;56.90;;;;;;5052995;28;20040;-68
2021/10/29 12:11:02;;;;;;;10.52;6.60;;;20.20;57.70;;;;;;5053015;28;20470;-73
2021/10/29 12:13:29;;;;;;;13.93;6.05;;;20.20;57.70;;;;;;5052861;28;20174;-69
2021/10/29 12:15:55;;;;;;;12.55;6.40;;;20.30;57.40;;;;;;5053125;28;20021;-70
2021/10/29 12:18:31;;;;;;;14.10;7.05;;;20.40;58.40;;;;;;5052868;28;20033;-69
2021/10/29 12:20:58;;;;;;;12.20;6.43;;;20.60;58.10;;;;;;5052621;28;20033;-68
2021/10/29 12:23:29;;;;;;;18.65;6.97;;;20.70;56.90;;;;;;5052637;28;20444;-71
2021/10/29 12:26:02;;;;;;;17.25;8.75;;;20.80;56.50;;;;;;5052778;28;20060;-69
2021/10/29 12:28:46;;;;;;;13.20;7.28;;;20.90;56.20;;;;;;5052443;28;20032;-70
2021/10/29 12:31:22;;;;;;;11.35;6.90;;;21.00;56.00;;;;;;5052653;28;20036;-71
2021/10/29 13:01:41;;;;;;;14.23;7.22;;;21.00;55.60;;;;;;5057202;28;20029;-70
2021/10/29 13:04:17;;;;;;;15.48;7.25;;;21.00;56.90;;;;;;5057102;28;20025;-69
2021/10/29 13:06:50;;;;;;;16.42;6.97;;;20.90;56.70;;;;;;5056866;28;20028;-74
2021/10/29 13:09:27;;;;;;;14.17;7.03;;;20.90;55.60;;;;;;5056962;28;20386;-76
2021/10/29 13:12:02;;;;;;;9.90;6.72;;;20.80;55.40;;;;;;5056436;28;20090;-78
2021/10/29 13:14:35;;;;;;;13.45;7.88;;;20.80;57.40;;;;;;5056356;28;20032;-76
2021/10/29 13:17:04;;;;;;;;;;;20.80;57.50;;;;;;5056795;28;20378;-77
2021/10/29 13:19:41;;;;;;;12.68;8.30;;;20.80;57.20;;;;;;5056076;28;19905;-70
2021/10/29 13:35:38;;;;;;;15.10;8.00;;;20.60;57.30;;;;;;5057626;28;20082;-86
2021/10/29 13:55:01;;;;;;;17.90;7.00;;;20.30;58.40;;;;;;5055403;28;19912;-71
2021/10/29 14:32:47;;;;;;;14.77;7.80;;;20.50;59.00;;;;;;5054735;28;20037;-68
2021/10/29 14:34:59;;;;;;;12.82;6.55;;;20.50;58.30;;;;;;5059048;28;20186;-69
2021/10/29 14:45:43;;;;;;;16.02;6.60;;;20.50;58.40;;;;;;5070443;28;20037;-68
2021/10/29 14:48:32;;;;;;;13.07;6.65;;;20.50;59.00;;;;;;5053925;28;20036;-69
2021/10/29 15:30:48;;;;;;;16.60;9.20;;;19.80;64.40;;;;;;5053908;28;20021;-69
2021/10/29 15:46:36;;;;;;;11.02;6.78;;;19.50;65.60;;;;;;5053048;28;20065;-73
2021/10/29 15:51:33;;;;;;;13.15;7.10;;;19.30;66.90;;;;;;5052749;28;20025;-69
2021/10/29 15:54:05;;;;;;;17.10;8.40;;;19.30;67.30;;;;;;5053287;28;20036;-72
2021/10/29 15:56:45;;;;;;;11.48;7.68;;;19.30;66.60;;;;;;5052996;28;20120;-72
2021/10/29 16:01:50;;;;;;;15.02;8.68;;;19.20;67.80;;;;;;5052929;28;20124;-70
2021/10/29 16:17:56;;;;;;;;;;;18.90;68.60;;;;;;5054359;28;20444;-71
2021/10/29 16:20:24;;;;;;;22.50;9.73;;;18.90;68.40;;;;;;5052723;28;19905;-70
2021/10/29 16:22:51;;;;;;;18.20;10.82;;;18.80;68.90;;;;;;5051620;28;20052;-69
2021/10/29 16:25:20;;;;;;;18.10;9.93;;;18.70;69.00;;;;;;5052930;28;20025;-71
2021/10/29 16:30:15;;;;;;;16.08;9.80;;;18.60;69.80;;;;;;5058856;28;20069;-73
2021/10/29 16:32:53;;;;;;;13.95;9.90;;;18.60;70.50;;;;;;5057524;28;20116;-70
2021/10/29 16:35:20;;;;;;;15.45;9.70;;;18.60;70.60;;;;;;5057231;28;20056;-69
2021/10/29 16:37:46;;;;;;;18.25;9.48;;;18.60;70.90;;;;;;5058878;28;20017;-70
2021/10/29 16:40:17;;;;;;;16.05;8.70;;;18.60;70.90;;;;;;5058967;28;20037;-74
2021/10/29 16:42:44;;;;;;;14.48;9.48;;;18.60;71.10;;;;;;5059046;28;20021;-69
2021/10/29 16:45:12;;;;;;;19.58;10.98;;;18.50;71.50;;;;;;5058986;28;20029;-69
2021/10/29 16:47:40;;;;;;;16.38;10.07;;;18.50;71.70;;;;;;5058817;28;20025;-73
2021/10/29 16:50:07;;;;;;;16.35;9.00;;;18.50;72.00;;;;;;5057229;28;20024;-69
2021/10/29 16:52:32;;;;;;;18.92;10.60;;;18.40;72.10;;;;;;5058617;28;20028;-70
2021/10/29 16:54:58;;;;;;;14.88;10.30;;;18.40;72.70;;;;;;5058849;28;20028;-69
2021/10/29 16:57:24;;;;;;;19.08;10.43;;;18.40;73.00;;;;;;5058777;28;20029;-69
2021/10/29 16:59:49;;;;;;;22.48;10.63;;;18.30;73.30;;;;;;5058686;28;20017;-70
2021/10/29 17:02:15;;;;;;;14.00;9.48;;;18.30;73.40;;;;;;5058717;28;20352;-70
2021/10/29 17:04:41;;;;;;;17.05;9.90;;;18.30;73.70;;;;;;5058877;28;20025;-69
2021/10/29 17:07:07;;;;;;;16.25;10.40;;;18.20;74.00;;;;;;5058719;28;20063;-68
2021/10/29 17:09:34;;;;;;;15.80;10.07;;;18.20;74.20;;;;;;5057191;28;20025;-72
2021/10/29 17:12:00;;;;;;;17.52;9.70;;;18.20;74.50;;;;;;5058684;28;20104;-70
2021/10/29 17:14:27;;;;;;;17.70;9.77;;;18.20;74.90;;;;;;5058690;28;20033;-71
2021/10/29 17:16:53;;;;;;;18.63;10.20;;;18.20;75.40;;;;;;5058399;28;20503;-68
2021/10/29 17:19:19;;;;;;;19.83;9.70;;;18.20;75.70;;;;;;5058411;28;20017;-69
2021/10/29 17:21:44;;;;;;;14.90;9.90;;;18.10;75.80;;;;;;5058843;28;20025;-70
2021/10/29 17:24:10;;;;;;;18.75;11.95;;;18.10;76.00;;;;;;5058909;28;20060;-68
2021/10/29 17:26:36;;;;;;;17.73;11.68;;;18.00;76.20;;;;;;5058630;28;20037;-71
2021/10/29 17:29:02;;;;;;;18.30;10.38;;;18.00;76.40;;;;;;5058642;28;20096;-69
2021/10/29 17:31:29;;;;;;;20.05;11.07;;;18.00;76.30;;;;;;5056709;28;20024;-70
2021/10/29 17:33:54;;;;;;;18.90;10.73;;;18.00;76.80;;;;;;5058571;28;20100;-69
2021/10/29 17:36:20;;;;;;;16.00;10.65;;;17.90;77.10;;;;;;5058484;28;20503;-69
2021/10/29 17:38:46;;;;;;;19.52;11.25;;;17.90;77.20;;;;;;5058348;28;20032;-69
2021/10/29 17:41:12;;;;;;;19.50;11.02;;;17.90;77.50;;;;;;5054469;28;20096;-69